Time;durP1;ratioP1;P1;durP2;ratioP2;P2;SDS_P1;SDS_P2;PMS_P1;PMS_P2;Temp;Humidity;BMP_temperature;BMP_pressure;BME280_temperature;BME280_humidity;BME280_pressure;Samples;Min_cycle;Max_cycle;Signal;HPM_P1;HPM_P2
2022/03/15 00:00:41;;;;;;;21.35;8.18;;;;;;;3.52;93.62;99530.41;5005124;28;20029;-66
2022/03/15 00:03:07;;;;;;;14.88;7.30;;;;;;;3.42;94.28;99520.59;5004813;28;20026;-66
2022/03/15 00:05:33;;;;;;;20.27;7.38;;;;;;;3.44;93.99;99513.72;5004796;28;20062;-66
2022/03/15 00:07:58;;;;;;;17.75;8.05;;;;;;;3.48;94.19;99509.47;5004666;28;20033;-66
2022/03/15 00:10:24;;;;;;;17.35;7.88;;;;;;;3.49;93.76;99512.13;5004686;28;20065;-66
2022/03/15 00:12:51;;;;;;;20.75;8.25;;;;;;;3.47;94.55;99508.59;5004705;28;20034;-66
2022/03/15 00:15:17;;;;;;;20.52;8.85;;;;;;;3.47;94.06;99503.38;5004579;28;20333;-66
2022/03/15 00:17:44;;;;;;;19.83;8.90;;;;;;;3.49;94.38;99506.91;5004902;28;20089;-66
2022/03/15 00:20:14;;;;;;;21.27;9.55;;;;;;;3.45;94.19;99499.88;5004785;28;20217;-66
2022/03/15 00:22:40;;;;;;;19.02;9.18;;;;;;;3.47;94.11;99498.19;5004552;28;20026;-66
2022/03/15 00:25:08;;;;;;;19.55;10.45;;;;;;;3.35;94.08;99491.84;5004528;28;20053;-66
2022/03/15 00:27:34;;;;;;;31.10;10.50;;;;;;;3.39;94.28;99488.47;5004364;28;20045;-66
2022/03/15 00:30:03;;;;;;;35.45;10.68;;;;;;;3.46;94.75;99485.13;5004496;28;20097;-66
2022/03/15 00:32:28;;;;;;;22.80;11.13;;;;;;;3.52;94.81;99482.69;5004702;28;20030;-66
2022/03/15 00:34:53;;;;;;;19.63;9.85;;;;;;;3.51;94.10;99479.19;5004437;28;20326;-66
2022/03/15 00:37:20;;;;;;;21.70;10.57;;;;;;;3.50;94.16;99487.84;5004479;28;20030;-66
2022/03/15 00:39:45;;;;;;;21.88;11.23;;;;;;;3.52;94.55;99480.06;5004378;28;20029;-66
2022/03/15 00:42:11;;;;;;;17.83;9.55;;;;;;;3.56;94.00;99469.75;5004643;28;20023;-66
2022/03/15 00:44:36;;;;;;;20.05;9.43;;;;;;;3.49;94.42;99470.47;5004385;28;20032;-66
2022/03/15 00:47:02;;;;;;;23.10;9.38;;;;;;;3.48;94.80;99473.91;5004279;28;20318;-66
2022/03/15 00:49:28;;;;;;;17.50;9.20;;;;;;;3.46;94.68;99470.41;5004269;28;20080;-66
2022/03/15 00:51:54;;;;;;;23.10;9.23;;;;;;;3.32;94.87;99461.41;5004301;28;20026;-66
2022/03/15 00:54:23;;;;;;;23.10;9.90;;;;;;;3.22;94.83;99453.34;5004525;28;20030;-66
2022/03/15 00:56:49;;;;;;;21.98;9.68;;;;;;;3.26;95.77;99466.47;5004485;28;20300;-66
2022/03/15 00:59:15;;;;;;;27.65;10.77;;;;;;;3.42;95.60;99471.16;5004403;28;20318;-66
2022/03/15 01:01:41;;;;;;;35.85;12.77;;;;;;;3.49;95.56;99472.19;5004212;28;20027;-66
2022/03/15 01:04:06;;;;;;;19.52;9.25;;;;;;;3.60;95.23;99465.47;5004204;28;20037;-66
2022/03/15 01:06:31;;;;;;;35.42;10.98;;;;;;;3.63;94.70;99463.84;5004421;28;20026;-66
2022/03/15 01:08:57;;;;;;;22.38;10.10;;;;;;;3.69;95.20;99463.06;5004071;28;20050;-66
2022/03/15 01:11:22;;;;;;;21.67;10.00;;;;;;;3.65;94.20;99462.16;5004099;28;20203;-66
2022/03/15 01:13:49;;;;;;;21.70;9.57;;;;;;;3.61;94.79;99459.47;5005503;28;20026;-66
2022/03/15 01:16:14;;;;;;;14.70;8.00;;;;;;;3.59;94.44;99451.59;5007900;28;20045;-66
2022/03/15 01:18:41;;;;;;;24.50;9.65;;;;;;;3.61;94.41;99455.09;4990533;28;20014;-66
2022/03/15 01:21:07;;;;;;;17.00;7.15;;;;;;;3.66;95.12;99463.91;5007778;28;20023;-66
2022/03/15 01:23:32;;;;;;;20.80;8.38;;;;;;;3.64;95.06;99447.34;5007789;28;20032;-66
2022/03/15 01:25:58;;;;;;;19.95;9.18;;;;;;;3.65;94.26;99450.84;5007719;28;20221;-66
2022/03/15 01:28:24;;;;;;;16.35;8.38;;;;;;;3.61;94.65;99454.25;5007596;28;20026;-66
2022/03/15 01:30:50;;;;;;;16.77;8.80;;;;;;;3.76;94.13;99468.44;5007589;28;20054;-66
2022/03/15 01:33:16;;;;;;;25.45;10.57;;;;;;;3.64;94.52;99460.38;5007836;28;20025;-66
2022/03/15 01:35:42;;;;;;;20.35;10.50;;;;;;;3.58;95.45;99460.25;5007539;28;20022;-66
2022/03/15 01:38:08;;;;;;;28.25;11.63;;;;;;;3.62;95.42;99449.06;5007505;28;20289;-66
2022/03/15 01:40:33;;;;;;;19.85;9.23;;;;;;;3.75;95.65;99448.47;5007498;28;20030;-66
2022/03/15 01:42:59;;;;;;;23.58;9.82;;;;;;;3.77;96.13;99454.56;5007406;28;20029;-66
2022/03/15 01:45:35;;;;;;;24.13;10.77;;;;;;;3.71;95.18;99446.66;5007632;28;20029;-66
2022/03/15 01:48:02;;;;;;;22.33;10.13;;;;;;;3.78;94.59;99447.66;5007289;28;20026;-66
2022/03/15 01:50:28;;;;;;;18.75;8.55;;;;;;;3.76;94.82;99450.22;5007528;28;20034;-66
2022/03/15 01:52:54;;;;;;;16.30;6.70;;;;;;;3.82;95.35;99449.47;5007233;28;20030;-66
2022/03/15 01:55:20;;;;;;;19.83;7.35;;;;;;;3.73;95.43;99450.16;5007204;28;20048;-66
2022/03/15 01:57:45;;;;;;;18.55;6.93;;;;;;;3.71;95.47;99450.97;5007138;28;20318;-66
2022/03/15 02:00:12;;;;;;;13.30;6.68;;;;;;;3.86;95.29;99452.16;5007312;28;20084;-66
2022/03/15 02:02:38;;;;;;;15.82;6.25;;;;;;;3.77;94.57;99451.97;5007024;28;20030;-66
2022/03/15 02:05:05;;;;;;;20.35;8.70;;;;;;;3.79;95.05;99445.06;5007042;28;20023;-66
2022/03/15 02:07:30;;;;;;;18.15;8.55;;;;;;;3.80;95.55;99444.22;5006901;28;20058;-66
2022/03/15 02:09:56;;;;;;;18.20;8.35;;;;;;;3.82;95.62;99445.16;5006946;28;20037;-66
2022/03/15 02:12:21;;;;;;;17.42;8.35;;;;;;;3.85;95.17;99450.41;5006846;28;20026;-66
2022/03/15 02:14:46;;;;;;;17.00;7.93;;;;;;;3.84;95.29;99447.78;5006723;28;20054;-66
2022/03/15 02:17:12;;;;;;;21.92;8.85;;;;;;;3.84;95.39;99437.38;5006742;28;20030;-66
2022/03/15 02:19:37;;;;;;;19.60;8.50;;;;;;;3.83;95.31;99446.88;5006764;28;20026;-66
2022/03/15 02:22:03;;;;;;;20.65;7.72;;;;;;;3.92;95.04;99446.19;5007023;28;20026;-66
2022/03/15 02:24:29;;;;;;;18.02;8.23;;;;;;;3.90;94.83;99433.13;5006024;28;20030;-66
2022/03/15 02:26:54;;;;;;;18.08;8.80;;;;;;;3.83;94.68;99441.69;5006200;28;20257;-66
2022/03/15 02:29:21;;;;;;;32.92;10.32;;;;;;;3.84;95.14;99433.03;5006490;28;20030;-66
2022/03/15 02:31:47;;;;;;;23.48;8.68;;;;;;;3.94;95.13;99434.09;5006498;28;20030;-66
2022/03/15 02:34:14;;;;;;;16.42;8.13;;;;;;;3.92;94.91;99431.44;5006412;28;20093;-66
2022/03/15 02:36:39;;;;;;;22.92;9.60;;;;;;;3.84;95.23;99427.84;5006701;28;20033;-66
2022/03/15 02:39:05;;;;;;;24.40;9.45;;;;;;;3.92;94.77;99426.25;5006473;28;20157;-66
2022/03/15 02:41:30;;;;;;;24.48;9.85;;;;;;;3.90;95.53;99425.31;5006356;28;20046;-66
2022/03/15 02:43:58;;;;;;;29.63;9.90;;;;;;;3.89;95.34;99425.31;5006303;28;20090;-66
2022/03/15 02:46:34;;;;;;;20.80;9.35;;;;;;;3.87;94.84;99414.88;5006275;28;20030;-66
2022/03/15 02:49:00;;;;;;;20.30;8.70;;;;;;;3.91;94.73;99414.06;5006354;28;20040;-66
2022/03/15 02:51:26;;;;;;;18.98;9.00;;;;;;;3.87;95.39;99414.88;5006146;28;20317;-66
2022/03/15 02:53:52;;;;;;;23.42;9.77;;;;;;;3.88;95.05;99419.22;5006158;28;20026;-66
2022/03/15 02:56:19;;;;;;;26.55;10.98;;;;;;;3.94;95.46;99406.31;5006101;28;20050;-66
2022/03/15 02:58:44;;;;;;;22.27;10.48;;;;;;;3.91;95.05;99403.66;5006037;28;20268;-66
2022/03/15 03:01:10;;;;;;;28.30;12.35;;;;;;;3.89;95.47;99400.13;5005981;28;20041;-66
2022/03/15 03:03:36;;;;;;;34.53;13.05;;;;;;;3.99;94.81;99406.41;5006028;28;20022;-66
2022/03/15 03:06:02;;;;;;;28.02;10.85;;;;;;;4.01;94.97;99410.78;5005887;28;20022;-66
2022/03/15 03:08:27;;;;;;;21.20;11.20;;;;;;;3.96;95.27;99402.00;5005775;28;20121;-66
2022/03/15 03:10:58;;;;;;;23.60;11.30;;;;;;;3.95;95.40;99405.47;5005756;28;20033;-66
2022/03/15 03:13:27;;;;;;;30.70;11.18;;;;;;;3.96;95.67;99412.41;5005754;28;20072;-66
2022/03/15 03:15:59;;;;;;;34.55;13.15;;;;;;;4.00;95.16;99418.56;5005538;28;20050;-66
2022/03/15 03:18:28;;;;;;;27.15;10.32;;;;;;;3.98;94.65;99410.72;5005862;28;20081;-66
2022/03/15 03:20:54;;;;;;;21.95;9.25;;;;;;;4.04;94.76;99399.53;5005609;28;20053;-66
2022/03/15 03:23:20;;;;;;;19.35;9.48;;;;;;;3.95;94.96;99415.00;5005790;28;20218;-66
2022/03/15 03:25:46;;;;;;;22.77;10.15;;;;;;;3.95;95.19;99410.69;5005745;28;20022;-66
2022/03/15 03:28:13;;;;;;;24.60;11.68;;;;;;;3.93;94.84;99404.53;5005474;28;20390;-66
2022/03/15 03:30:46;;;;;;;23.60;9.80;;;;;;;3.90;95.29;99401.88;5005671;28;20093;-66
2022/03/15 03:33:12;;;;;;;19.95;9.90;;;;;;;3.99;95.67;99396.84;5005356;28;20029;-66
2022/03/15 03:35:38;;;;;;;23.73;10.73;;;;;;;4.04;95.27;99400.44;5005127;28;20022;-66
2022/03/15 03:38:05;;;;;;;22.90;10.65;;;;;;;4.00;94.86;99393.41;5005188;28;20040;-66
2022/03/15 03:40:31;;;;;;;22.02;7.53;;;;;;;3.92;95.52;99397.59;5005236;28;20318;-66
2022/03/15 03:42:57;;;;;;;12.77;6.55;;;;;;;3.87;95.07;99393.16;5005418;28;20041;-66
2022/03/15 03:45:22;;;;;;;15.27;7.10;;;;;;;3.79;95.59;99390.41;5005143;28;20029;-66
2022/03/15 03:47:48;;;;;;;19.10;8.45;;;;;;;3.84;95.81;99401.78;5005021;28;20068;-66
2022/03/15 03:50:13;;;;;;;14.02;7.60;;;;;;;3.86;96.28;99399.22;5005097;28;20241;-66
2022/03/15 03:52:38;;;;;;;26.45;10.43;;;;;;;3.92;95.61;99395.00;5005132;28;20033;-66
2022/03/15 03:55:04;;;;;;;19.00;8.98;;;;;;;3.90;95.95;99396.69;5005016;28;20029;-66
2022/03/15 03:57:30;;;;;;;25.63;10.80;;;;;;;3.94;95.69;99387.22;5004987;28;20033;-66
2022/03/15 03:59:56;;;;;;;22.60;9.30;;;;;;;3.98;95.27;99395.09;5005574;28;20037;-66
2022/03/15 04:02:21;;;;;;;16.55;8.93;;;;;;;3.99;95.89;99386.44;5005162;28;20026;-66
2022/03/15 04:04:47;;;;;;;16.02;7.78;;;;;;;4.01;95.64;99391.69;5004916;28;20336;-66
2022/03/15 04:07:12;;;;;;;27.95;10.00;;;;;;;3.98;95.15;99378.59;5004838;28;20317;-66
2022/03/15 04:09:41;;;;;;;15.45;7.70;;;;;;;4.00;95.51;99377.78;5004738;28;20022;-66
2022/03/15 04:12:07;;;;;;;22.20;8.07;;;;;;;4.01;95.25;99378.66;5004716;28;20274;-66
2022/03/15 04:14:36;;;;;;;20.02;9.13;;;;;;;4.01;95.81;99378.66;5004564;28;20049;-66
2022/03/15 04:17:03;;;;;;;17.90;8.65;;;;;;;4.01;95.55;99374.34;5004673;28;20018;-66
2022/03/15 04:19:28;;;;;;;20.67;8.45;;;;;;;3.98;95.72;99369.06;5004842;28;20317;-66
2022/03/15 04:21:54;;;;;;;23.30;8.15;;;;;;;4.02;95.35;99381.28;5004672;28;20033;-66
2022/03/15 04:24:19;;;;;;;18.73;8.73;;;;;;;4.00;96.32;99362.16;5004610;28;20022;-66
2022/03/15 04:26:46;;;;;;;20.40;9.00;;;;;;;4.06;95.88;99372.69;5004596;28;20044;-66
2022/03/15 04:29:12;;;;;;;19.77;8.73;;;;;;;4.13;95.34;99384.09;5004477;28;20026;-66
2022/03/15 04:31:37;;;;;;;21.63;8.73;;;;;;;4.10;94.95;99371.91;5002999;28;20033;-66
2022/03/15 04:34:03;;;;;;;22.05;9.82;;;;;;;4.01;95.30;99374.34;5003583;28;20036;-66
2022/03/15 04:36:29;;;;;;;23.63;8.88;;;;;;;3.96;96.29;99365.53;5003565;28;20022;-66
2022/03/15 04:38:55;;;;;;;16.75;9.38;;;;;;;3.92;96.08;99374.16;5003749;28;20019;-67
2022/03/15 04:41:21;;;;;;;18.95;7.80;;;;;;;3.79;97.06;99369.56;5003641;28;20033;-67
2022/03/15 04:43:46;;;;;;;19.63;8.57;;;;;;;3.89;96.77;99371.50;5003193;28;20031;-67
2022/03/15 04:46:12;;;;;;;13.57;7.20;;;;;;;3.95;96.87;99379.41;5003502;28;20026;-67
2022/03/15 04:48:38;;;;;;;14.70;7.22;;;;;;;4.02;95.99;99388.25;5004763;28;20045;-67
2022/03/15 04:51:05;;;;;;;16.20;6.07;;;;;;;4.03;96.66;99387.38;5007572;28;20341;-67
2022/03/15 04:53:31;;;;;;;19.98;9.05;;;;;;;4.12;96.62;99383.19;5007512;28;20022;-67
2022/03/15 04:55:56;;;;;;;19.42;8.93;;;;;;;4.09;96.23;99385.75;5013204;28;20209;-67
2022/03/15 04:58:23;;;;;;;16.20;8.35;;;;;;;3.97;96.30;99377.75;5006887;28;20026;-67
2022/03/15 05:00:48;;;;;;;20.75;7.88;;;;;;;4.12;96.28;99367.56;5007104;28;20022;-67
2022/03/15 05:03:16;;;;;;;11.43;6.32;;;;;;;4.17;96.19;99378.97;5006983;28;20037;-67
2022/03/15 05:05:43;;;;;;;16.70;7.20;;;;;;;4.17;96.69;99370.25;5007577;28;20029;-67
2022/03/15 05:08:09;;;;;;;15.95;7.00;;;;;;;4.14;96.81;99371.09;5007417;28;20068;-68
2022/03/15 05:13:20;;;;;;;9.55;4.03;;;;;;;4.40;96.25;99380.22;5008029;28;20029;-68
2022/03/15 05:15:47;;;;;;;12.07;4.70;;;;;;;4.43;96.21;99372.47;5007808;28;20190;-68
2022/03/15 05:18:13;;;;;;;13.60;5.82;;;;;;;4.41;96.16;99366.38;5007944;28;20026;-68
2022/03/15 05:20:38;;;;;;;6.78;3.65;;;;;;;4.47;96.27;99371.66;5007831;28;20025;-68
2022/03/15 05:23:04;;;;;;;11.52;5.03;;;;;;;4.50;96.09;99369.09;5007815;28;20046;-68
2022/03/15 05:25:29;;;;;;;8.98;5.22;;;;;;;4.44;95.88;99361.16;5008036;28;20022;-68
2022/03/15 05:27:55;;;;;;;23.70;9.75;;;;;;;4.41;95.85;99350.72;5007622;28;20390;-68
2022/03/15 05:30:20;;;;;;;15.30;7.15;;;;;;;4.41;96.02;99348.13;5007700;28;20054;-68
2022/03/15 05:32:46;;;;;;;20.50;7.93;;;;;;;4.35;96.21;99344.53;5007629;28;20037;-68
2022/03/15 05:35:11;;;;;;;16.60;7.55;;;;;;;4.37;95.58;99345.44;5007702;28;20073;-68
2022/03/15 05:37:37;;;;;;;14.60;6.65;;;;;;;4.48;96.06;99343.88;5007566;28;20081;-68
2022/03/15 05:40:03;;;;;;;17.08;5.93;;;;;;;4.45;95.98;99336.88;5007520;28;20027;-68
2022/03/15 05:42:28;;;;;;;13.02;5.88;;;;;;;4.49;96.15;99353.44;5007408;28;20094;-68
2022/03/15 05:44:54;;;;;;;17.23;6.78;;;;;;;4.55;96.21;99350.91;5007432;28;20026;-68
2022/03/15 05:47:19;;;;;;;14.63;6.30;;;;;;;4.48;96.26;99352.56;5007406;28;20341;-68
2022/03/15 05:49:45;;;;;;;13.07;5.47;;;;;;;4.48;96.68;99349.97;5007368;28;20038;-68
2022/03/15 05:52:10;;;;;;;17.40;6.72;;;;;;;4.52;96.13;99352.63;5007329;28;20030;-68
2022/03/15 05:54:36;;;;;;;12.88;6.22;;;;;;;4.47;96.86;99339.50;5007265;28;20041;-68
2022/03/15 05:57:02;;;;;;;15.40;6.78;;;;;;;4.50;96.36;99344.78;5007216;28;20026;-68
2022/03/15 05:59:28;;;;;;;16.63;7.03;;;;;;;4.48;96.33;99342.16;5007007;28;20030;-68
2022/03/15 06:01:54;;;;;;;13.02;6.18;;;;;;;4.50;96.36;99350.84;5007056;28;20034;-68
2022/03/15 06:04:26;;;;;;;12.73;6.10;;;;;;;4.47;96.71;99350.78;5007126;28;20061;-68
2022/03/15 06:06:55;;;;;;;18.73;8.43;;;;;;;4.50;96.57;99350.84;5007019;28;20101;-68
2022/03/15 06:09:20;;;;;;;19.15;8.25;;;;;;;4.52;95.92;99353.47;5007159;28;20018;-68
2022/03/15 06:11:46;;;;;;;24.67;9.15;;;;;;;4.46;96.01;99349.06;5006907;28;20064;-68
2022/03/15 06:14:12;;;;;;;20.42;9.00;;;;;;;4.44;96.08;99349.88;5006723;28;20042;-68
2022/03/15 06:16:37;;;;;;;20.70;8.25;;;;;;;4.50;96.00;99358.66;5006924;28;20037;-68
2022/03/15 06:19:03;;;;;;;20.60;8.65;;;;;;;4.64;95.66;99353.66;5006820;28;20033;-68
2022/03/15 06:21:28;;;;;;;10.70;6.35;;;;;;;4.66;96.17;99351.97;5006758;28;20132;-68
2022/03/15 06:23:54;;;;;;;16.00;6.72;;;;;;;4.79;96.20;99359.13;5006741;28;20081;-68
2022/03/15 06:26:20;;;;;;;21.48;7.93;;;;;;;4.74;95.85;99349.50;5006687;28;20321;-68
2022/03/15 06:28:46;;;;;;;19.92;9.52;;;;;;;4.77;95.85;99360.81;5006557;28;20026;-68
2022/03/15 06:31:13;;;;;;;24.13;9.80;;;;;;;4.69;95.64;99356.34;5006590;28;20039;-68
2022/03/15 06:33:38;;;;;;;27.88;10.43;;;;;;;4.79;96.27;99347.81;5006761;28;20026;-68
2022/03/15 06:36:08;;;;;;;20.05;9.55;;;;;;;4.85;96.37;99347.91;5006480;28;20097;-68
2022/03/15 06:38:33;;;;;;;13.27;6.30;;;;;;;4.95;96.29;99347.19;5006675;28;20081;-68
2022/03/15 06:40:59;;;;;;;17.67;6.13;;;;;;;5.00;96.00;99348.97;5006399;28;20030;-68
2022/03/15 06:43:25;;;;;;;20.50;7.32;;;;;;;5.08;95.83;99336.03;5006355;28;20337;-68
2022/03/15 06:45:50;;;;;;;14.02;7.18;;;;;;;5.02;96.47;99335.97;5006362;28;20322;-68
2022/03/15 06:48:16;;;;;;;15.27;7.88;;;;;;;5.11;96.24;99336.09;5006171;28;20033;-68
2022/03/15 06:50:42;;;;;;;20.35;8.32;;;;;;;5.09;96.42;99327.38;5006225;28;20211;-68
2022/03/15 06:53:07;;;;;;;19.13;8.20;;;;;;;5.07;96.39;99334.31;5006170;28;20199;-68
2022/03/15 06:55:33;;;;;;;19.52;8.38;;;;;;;5.11;96.83;99325.66;5006073;28;20026;-68
2022/03/15 06:57:59;;;;;;;13.18;6.88;;;;;;;5.21;96.65;99322.31;5006061;28;20026;-68
2022/03/15 07:00:25;;;;;;;13.23;5.90;;;;;;;5.24;96.41;99318.00;5006062;28;20022;-68
2022/03/15 07:02:51;;;;;;;14.63;6.10;;;;;;;5.32;95.88;99321.56;5006212;28;20026;-68
2022/03/15 07:05:16;;;;;;;16.50;7.03;;;;;;;5.34;95.89;99324.19;5006014;28;20222;-68
2022/03/15 07:07:41;;;;;;;11.23;6.53;;;;;;;5.38;96.02;99326.00;5005847;28;20022;-68
2022/03/15 07:10:09;;;;;;;17.92;7.45;;;;;;;5.41;95.77;99326.91;5005765;28;20385;-68
2022/03/15 07:12:36;;;;;;;17.08;7.43;;;;;;;5.41;95.66;99315.63;5005430;28;20022;-68
2022/03/15 07:15:03;;;;;;;13.60;6.50;;;;;;;5.49;95.85;99314.84;5005562;28;20034;-68
2022/03/15 07:17:30;;;;;;;12.55;6.53;;;;;;;5.53;96.19;99315.72;5005707;28;20018;-68
2022/03/15 07:19:59;;;;;;;20.08;8.50;;;;;;;5.50;95.83;99316.56;5005595;28;20025;-68
2022/03/15 07:22:25;;;;;;;13.85;7.28;;;;;;;5.48;95.52;99312.22;5005829;28;20022;-68
2022/03/15 07:24:51;;;;;;;17.25;8.40;;;;;;;5.53;95.26;99302.69;5005775;28;20326;-68
2022/03/15 07:27:18;;;;;;;15.20;6.65;;;;;;;5.61;96.00;99308.88;5005727;28;20065;-68
2022/03/15 07:29:43;;;;;;;9.70;5.90;;;;;;;5.71;96.04;99313.34;5005436;28;20089;-68
2022/03/15 07:32:09;;;;;;;14.98;8.00;;;;;;;5.63;96.30;99315.00;5005440;28;20085;-68
2022/03/15 07:34:35;;;;;;;17.75;10.02;;;;;;;5.65;96.29;99313.25;5005602;28;20022;-68
2022/03/15 07:37:00;;;;;;;16.65;8.98;;;;;;;5.71;97.00;99310.72;5005571;28;20272;-68
2022/03/15 07:39:26;;;;;;;13.10;6.68;;;;;;;5.83;97.19;99318.72;5005374;28;20037;-68
2022/03/15 07:41:52;;;;;;;13.18;5.10;;;;;;;5.93;97.58;99317.94;5005259;28;20022;-68
2022/03/15 07:44:17;;;;;;;14.50;5.90;;;;;;;5.99;97.28;99318.00;5005223;28;20022;-68
2022/03/15 07:46:48;;;;;;;18.38;5.88;;;;;;;6.06;97.58;99306.75;5005239;28;20022;-68
2022/03/15 07:49:16;;;;;;;15.88;5.78;;;;;;;6.09;98.48;99299.81;5005122;28;20037;-68
2022/03/15 07:51:41;;;;;;;13.68;5.78;;;;;;;6.16;98.31;99295.50;5005115;28;20033;-68
2022/03/15 07:54:07;;;;;;;11.77;5.53;;;;;;;6.27;98.36;99299.09;5005051;28;20053;-68
2022/03/15 07:56:32;;;;;;;24.98;6.05;;;;;;;6.34;97.58;99299.16;5005017;28;20030;-68
2022/03/15 07:58:58;;;;;;;11.23;6.30;;;;;;;6.39;97.77;99291.34;5004982;28;20026;-68
2022/03/15 08:01:23;;;;;;;13.20;7.15;;;;;;;6.38;98.44;99292.22;5004931;28;20022;-68
2022/03/15 08:03:48;;;;;;;15.95;7.25;;;;;;;6.41;97.70;99292.22;5004937;28;20022;-68
2022/03/15 08:06:14;;;;;;;12.35;6.78;;;;;;;6.48;97.27;99291.41;5005112;28;20027;-69
2022/03/15 08:08:42;;;;;;;13.02;5.97;;;;;;;6.58;96.28;99282.75;5004992;28;20018;-69
2022/03/15 08:11:07;;;;;;;11.23;6.38;;;;;;;6.57;97.01;99278.41;5004950;28;20022;-69
2022/03/15 08:13:34;;;;;;;15.57;6.30;;;;;;;6.60;97.15;99281.03;5004766;28;20397;-69
2022/03/15 08:16:01;;;;;;;9.95;5.20;;;;;;;6.64;97.16;99269.72;5004570;28;20050;-69
2022/03/15 08:18:27;;;;;;;11.50;5.82;;;;;;;6.64;96.80;99267.09;5004912;28;20018;-69
2022/03/15 08:20:54;;;;;;;15.43;6.07;;;;;;;6.70;97.18;99264.53;5004644;28;20313;-69
2022/03/15 08:23:21;;;;;;;13.52;6.28;;;;;;;6.72;96.46;99259.31;5003669;28;20022;-69
2022/03/15 08:25:47;;;;;;;14.25;6.60;;;;;;;6.80;96.86;99261.09;5004498;28;20097;-69
2022/03/15 08:28:12;;;;;;;15.90;7.43;;;;;;;6.84;98.11;99247.19;5004587;28;20023;-69
2022/03/15 08:30:38;;;;;;;11.95;5.90;;;;;;;6.89;97.76;99261.16;5004527;28;20022;-69
2022/03/15 08:33:03;;;;;;;16.77;5.55;;;;;;;6.92;97.55;99252.44;5004497;28;20026;-69
2022/03/15 08:35:29;;;;;;;9.23;4.32;;;;;;;6.98;97.12;99242.00;5004475;28;20322;-69
2022/03/15 08:37:54;;;;;;;12.25;5.70;;;;;;;6.99;97.96;99239.38;5004459;28;20097;-69
2022/03/15 08:40:21;;;;;;;7.65;4.15;;;;;;;7.00;98.51;99238.53;5004663;28;20030;-69
2022/03/15 08:42:48;;;;;;;10.77;3.97;;;;;;;7.00;98.29;99235.91;5004393;28;20022;-69
2022/03/15 08:45:13;;;;;;;12.57;3.47;;;;;;;7.01;97.37;99232.41;5004652;28;20306;-69
2022/03/15 08:47:40;;;;;;;10.60;3.40;;;;;;;7.08;96.56;99215.88;5004362;28;20029;-69
2022/03/15 08:50:07;;;;;;;6.80;2.90;;;;;;;7.07;95.77;99214.13;5004499;28;20028;-69
2022/03/15 08:52:33;;;;;;;6.75;2.65;;;;;;;7.21;94.76;99217.66;5004329;28;20033;-69
2022/03/15 08:54:59;;;;;;;6.82;2.25;;;;;;;7.22;95.33;99203.72;5004237;28;20022;-69
2022/03/15 08:57:25;;;;;;;14.25;2.90;;;;;;;7.28;94.85;99208.94;5004333;28;20071;-69
2022/03/15 08:59:50;;;;;;;4.85;2.60;;;;;;;7.21;94.90;99207.19;5004244;28;20018;-69
2022/03/15 09:02:17;;;;;;;7.70;2.40;;;;;;;7.24;95.31;99211.56;5004259;28;20053;-69
2022/03/15 09:04:43;;;;;;;6.40;2.67;;;;;;;7.30;95.44;99196.75;5004291;28;20018;-69
2022/03/15 09:07:09;;;;;;;4.82;2.60;;;;;;;7.22;96.12;99192.38;5004214;28;20214;-69
2022/03/15 09:09:34;;;;;;;8.20;2.63;;;;;;;7.18;95.50;99191.47;5004327;28;20022;-69
2022/03/15 09:15:29;;;;;;;5.80;3.05;;;;;;;7.09;97.17;99180.97;5101817;27;20416;-68
2022/03/15 09:17:57;;;;;;;11.35;3.40;;;;;;;7.15;97.07;99188.84;5101611;28;20312;-69
2022/03/15 09:20:24;;;;;;;11.18;3.28;;;;;;;7.11;97.97;99188.81;5101549;28;20028;-69
2022/03/15 09:22:50;;;;;;;5.30;2.90;;;;;;;7.11;98.11;99180.97;5101399;28;20020;-69
2022/03/15 09:25:15;;;;;;;10.90;3.90;;;;;;;7.28;97.81;99181.91;5101430;28;20023;-69
2022/03/15 09:27:41;;;;;;;5.10;2.50;;;;;;;7.29;97.64;99174.06;5101423;28;20020;-69
2022/03/15 09:30:07;;;;;;;8.32;3.63;;;;;;;7.21;98.10;99175.78;5101365;28;20020;-69
2022/03/15 09:32:32;;;;;;;9.38;2.78;;;;;;;7.29;98.79;99174.06;5101325;28;20027;-69
2022/03/15 09:34:58;;;;;;;5.85;2.95;;;;;;;7.37;98.48;99174.94;5101216;28;20012;-69
2022/03/15 09:37:24;;;;;;;6.25;2.60;;;;;;;7.39;98.94;99167.97;5101245;28;20028;-69
2022/03/15 09:39:52;;;;;;;9.85;3.78;;;;;;;7.47;98.31;99163.59;5101429;28;20311;-69
2022/03/15 09:42:20;;;;;;;6.05;2.70;;;;;;;7.50;98.87;99163.59;5101078;28;20020;-69
2022/03/15 09:44:47;;;;;;;9.38;3.58;;;;;;;7.58;98.74;99156.63;5101317;28;20023;-69
2022/03/15 09:47:17;;;;;;;8.43;2.55;;;;;;;7.59;99.59;99168.84;5101009;28;20347;-69
2022/03/15 09:49:44;;;;;;;6.32;3.42;;;;;;;7.61;99.17;99154.03;5101194;28;20088;-69
2022/03/15 09:52:11;;;;;;;7.55;3.28;;;;;;;7.63;99.24;99146.16;5100895;28;20100;-69
2022/03/15 09:54:38;;;;;;;7.82;3.20;;;;;;;7.66;98.72;99123.44;5100788;28;20016;-69
2022/03/15 09:57:05;;;;;;;6.85;3.33;;;;;;;7.81;98.57;99122.56;5101077;28;20028;-69
2022/03/15 09:59:30;;;;;;;7.15;2.55;;;;;;;7.71;99.12;99124.31;5100803;28;20154;-69
2022/03/15 10:01:57;;;;;;;4.32;2.63;;;;;;;7.75;99.12;99112.09;5100782;28;20051;-69
2022/03/15 10:04:23;;;;;;;5.07;2.90;;;;;;;7.79;99.15;99113.84;5100941;28;20020;-69
2022/03/15 10:06:50;;;;;;;9.40;3.45;;;;;;;7.77;99.18;99100.75;5100633;28;20024;-69
2022/03/15 10:09:15;;;;;;;5.57;2.85;;;;;;;7.68;99.85;99100.75;5100657;28;20073;-69
2022/03/15 10:11:42;;;;;;;8.32;3.20;;;;;;;7.65;99.43;99095.50;5100494;28;20054;-69
2022/03/15 10:14:09;;;;;;;5.65;2.85;;;;;;;7.71;100.00;99094.63;5100266;28;20373;-69
2022/03/15 10:16:40;;;;;;;6.03;2.92;;;;;;;7.63;99.90;99092.00;5100447;28;20043;-69
2022/03/15 10:19:07;;;;;;;8.70;2.77;;;;;;;7.66;100.00;99078.91;5100421;28;20024;-69
2022/03/15 10:21:48;;;;;;;7.55;3.72;;;;;;;7.76;99.85;99078.06;5100353;28;20253;-69
2022/03/15 10:24:22;;;;;;;10.13;4.30;;;;;;;7.82;99.67;99078.00;5100646;28;20044;-69
2022/03/15 10:26:49;;;;;;;7.75;3.40;;;;;;;7.77;99.49;99071.91;5087107;28;20032;-69
2022/03/15 10:29:16;;;;;;;6.57;3.63;;;;;;;7.83;99.82;99068.41;5086767;28;20228;-69
2022/03/15 10:31:44;;;;;;;10.50;3.42;;;;;;;7.76;99.50;99072.81;5086946;28;20255;-69
2022/03/15 10:34:11;;;;;;;6.90;3.67;;;;;;;7.84;100.00;99055.31;5086533;28;20028;-69
2022/03/15 10:36:50;;;;;;;7.55;3.50;;;;;;;7.95;99.95;99037.84;5086566;28;20489;-69
2022/03/15 10:39:17;;;;;;;12.38;3.70;;;;;;;8.02;99.95;99039.53;5086501;28;20016;-69
2022/03/15 10:41:42;;;;;;;5.65;3.47;;;;;;;8.10;100.00;99045.63;5086521;28;20020;-69
2022/03/15 10:44:18;;;;;;;6.50;3.38;;;;;;;8.13;99.50;99037.75;5086455;28;20017;-69
2022/03/15 10:46:44;;;;;;;11.13;4.25;;;;;;;8.16;100.00;99032.50;5086527;28;20024;-69
2022/03/15 10:49:11;;;;;;;13.65;3.53;;;;;;;8.12;99.03;99030.78;5086590;28;20062;-69
2022/03/15 10:51:37;;;;;;;8.10;3.50;;;;;;;8.16;99.24;99037.75;5086263;28;20031;-69
2022/03/15 10:54:05;;;;;;;7.57;3.40;;;;;;;8.20;98.82;99031.59;5086163;28;20032;-69
2022/03/15 10:56:31;;;;;;;3.83;2.45;;;;;;;8.29;99.20;99026.34;5086161;28;20020;-69
2022/03/15 10:59:03;;;;;;;6.22;2.75;;;;;;;8.39;98.77;99030.69;5086151;28;20038;-69
2022/03/15 11:01:38;;;;;;;4.35;2.90;;;;;;;8.43;98.51;99024.56;5086379;28;20216;-69
2022/03/15 11:04:06;;;;;;;5.68;3.05;;;;;;;8.50;98.35;99026.28;5086096;28;20379;-69
2022/03/15 11:06:43;;;;;;;9.32;3.78;;;;;;;8.47;98.37;99015.78;5085986;28;20027;-69
2022/03/15 11:09:27;;;;;;;6.28;3.08;;;;;;;8.54;98.16;99020.13;5085958;28;20024;-69
2022/03/15 11:12:04;;;;;;;7.85;3.00;;;;;;;8.51;98.05;99014.00;5085813;28;20090;-69
2022/03/15 11:14:41;;;;;;;5.80;2.90;;;;;;;8.43;98.10;99016.69;5085686;28;20336;-69
2022/03/15 11:17:24;;;;;;;7.57;3.25;;;;;;;8.36;98.78;99007.09;5085876;28;20089;-69
2022/03/15 11:19:52;;;;;;;6.78;3.78;;;;;;;8.44;98.58;98993.94;5085788;28;20087;-69
2022/03/15 11:22:34;;;;;;;7.95;3.40;;;;;;;8.47;98.82;98986.94;5085680;28;20016;-69
2022/03/15 11:25:20;;;;;;;9.93;3.60;;;;;;;8.52;97.92;98984.28;5085721;28;20029;-69
2022/03/15 11:27:48;;;;;;;9.48;3.20;;;;;;;8.56;98.38;98986.91;5085911;28;20060;-69
2022/03/15 11:30:16;;;;;;;7.85;2.78;;;;;;;8.62;98.20;98991.22;5085550;28;20024;-69
2022/03/15 11:32:42;;;;;;;10.63;3.60;;;;;;;8.58;97.88;98987.75;5085481;28;20327;-69
2022/03/15 11:35:10;;;;;;;5.25;3.38;;;;;;;8.64;97.88;98992.94;5085379;28;20066;-69
2022/03/15 11:37:37;;;;;;;9.55;3.17;;;;;;;8.65;97.83;98985.97;5084491;28;20250;-69